createdAt,value
2022-08-20T00:00:10.665Z,19.59
2022-08-20T00:01:10.589Z,19.55
2022-08-20T00:02:10.608Z,19.58
2022-08-20T00:03:10.440Z,19.58
2022-08-20T00:04:10.366Z,19.56
2022-08-20T00:05:10.290Z,19.55
2022-08-20T00:06:10.218Z,19.51
2022-08-20T00:07:10.138Z,19.62
2022-08-20T00:08:10.060Z,19.54
2022-08-20T00:09:09.982Z,19.54
2022-08-20T00:10:09.915Z,19.48
2022-08-20T00:11:09.832Z,19.51
2022-08-20T00:12:09.754Z,19.51
2022-08-20T00:13:09.687Z,19.47
2022-08-20T00:14:09.607Z,19.52
2022-08-20T00:15:09.534Z,19.41
2022-08-20T00:16:09.454Z,19.51
2022-08-20T00:17:09.379Z,19.52
2022-08-20T00:18:09.305Z,19.52
2022-08-20T00:19:09.231Z,19.52
2022-08-20T00:20:09.152Z,19.40
2022-08-20T00:21:09.083Z,19.39
2022-08-20T00:22:09.001Z,19.39
2022-08-20T00:23:10.619Z,19.34
2022-08-20T00:24:08.850Z,19.44
2022-08-20T00:25:08.773Z,19.36
2022-08-20T00:26:08.704Z,19.31
2022-08-20T00:27:08.620Z,19.31
2022-08-20T00:28:08.547Z,19.37
2022-08-20T00:29:08.468Z,19.26
2022-08-20T00:30:08.394Z,19.34
2022-08-20T00:31:08.323Z,19.33
2022-08-20T00:32:08.244Z,19.29
2022-08-20T00:33:08.172Z,19.29
2022-08-20T00:34:08.096Z,19.33
2022-08-20T00:35:08.014Z,19.31
2022-08-20T00:36:07.940Z,19.24
2022-08-20T00:37:07.862Z,19.27
2022-08-20T00:38:07.791Z,19.18
2022-08-20T00:39:07.724Z,19.19
2022-08-20T00:40:07.672Z,19.18
2022-08-20T00:41:07.557Z,19.24
2022-08-20T00:42:07.484Z,19.21
2022-08-20T00:43:07.405Z,19.16
2022-08-20T00:44:07.335Z,19.18
2022-08-20T00:45:07.258Z,19.19
2022-08-20T00:46:07.178Z,19.21
2022-08-20T00:47:07.106Z,19.19
2022-08-20T00:48:07.028Z,19.19
2022-08-20T00:49:06.959Z,19.16
2022-08-20T00:50:06.877Z,19.14
2022-08-20T00:51:06.805Z,19.14
2022-08-20T00:52:06.732Z,19.12
2022-08-20T00:53:06.655Z,19.14
2022-08-20T00:54:06.573Z,19.16
2022-08-20T00:55:06.501Z,19.02
2022-08-20T00:56:06.419Z,19.11
2022-08-20T00:57:06.344Z,19.09
2022-08-20T00:58:06.670Z,19.11
2022-08-20T00:59:06.198Z,19.04
2022-08-20T01:00:06.119Z,19.18
2022-08-20T01:01:06.041Z,19.12
2022-08-20T01:02:05.992Z,19.07
2022-08-20T01:03:05.888Z,18.98
2022-08-20T01:04:05.813Z,19.09
2022-08-20T01:05:05.738Z,19.11
2022-08-20T01:06:05.664Z,18.95
2022-08-20T01:07:05.583Z,19.02
2022-08-20T01:08:05.507Z,19.11
2022-08-20T01:09:05.433Z,19.07
2022-08-20T01:10:05.354Z,19.15
2022-08-20T01:11:05.278Z,19.04
2022-08-20T01:12:05.203Z,18.98
2022-08-20T01:13:05.124Z,19.04
2022-08-20T01:14:05.049Z,19.09
2022-08-20T01:15:04.983Z,19.11
2022-08-20T01:16:04.899Z,19.04
2022-08-20T01:17:04.825Z,19.04
2022-08-20T01:18:04.745Z,19.09
2022-08-20T01:19:04.678Z,19.07
2022-08-20T01:20:04.597Z,19.04
2022-08-20T01:21:04.516Z,18.98
2022-08-20T01:22:04.446Z,19.00
2022-08-20T01:23:04.364Z,18.99
2022-08-20T01:24:04.289Z,18.98
2022-08-20T01:25:04.217Z,19.00
2022-08-20T01:26:04.150Z,18.90
2022-08-20T01:27:04.058Z,18.98
2022-08-20T01:28:03.984Z,18.86
2022-08-20T01:29:03.912Z,18.92
2022-08-20T01:30:06.075Z,18.93
2022-08-20T01:31:03.759Z,18.86
2022-08-20T01:32:03.680Z,18.93
2022-08-20T01:33:03.602Z,18.95
2022-08-20T01:34:03.524Z,18.92
2022-08-20T01:35:03.448Z,18.92
2022-08-20T01:36:03.373Z,18.92
2022-08-20T01:37:03.300Z,18.88
2022-08-20T01:38:03.222Z,18.81
2022-08-20T01:39:03.158Z,18.81
2022-08-20T01:40:03.116Z,18.84
2022-08-20T01:41:02.998Z,18.83
2022-08-20T01:42:02.914Z,18.75
2022-08-20T01:43:02.842Z,18.80
2022-08-20T01:44:02.765Z,18.78
2022-08-20T01:45:04.251Z,18.83
2022-08-20T01:46:02.610Z,18.80
2022-08-20T01:47:02.534Z,18.77
2022-08-20T01:48:02.458Z,18.78
2022-08-20T01:49:02.388Z,18.74
2022-08-20T01:50:02.304Z,18.75
2022-08-20T01:51:02.232Z,18.74
2022-08-20T01:52:02.152Z,18.78
2022-08-20T01:53:02.168Z,18.77
2022-08-20T01:54:02.007Z,18.81
2022-08-20T01:55:01.928Z,18.81
2022-08-20T01:56:01.846Z,18.74
2022-08-20T01:57:01.769Z,18.66
2022-08-20T01:58:01.697Z,18.73
2022-08-20T01:59:01.623Z,18.66
2022-08-20T02:00:01.548Z,18.66
2022-08-20T02:01:01.467Z,18.73
2022-08-20T02:02:01.387Z,18.71
2022-08-20T02:03:01.317Z,18.70
2022-08-20T02:04:01.238Z,18.74
2022-08-20T02:05:01.159Z,18.70
2022-08-20T02:06:01.090Z,18.66
2022-08-20T02:07:01.009Z,18.75
2022-08-20T02:08:00.930Z,18.75
2022-08-20T02:09:00.859Z,18.73
2022-08-20T02:10:00.778Z,18.66
2022-08-20T02:11:00.703Z,18.68
2022-08-20T02:12:00.627Z,18.77
2022-08-20T02:13:00.554Z,18.80
2022-08-20T02:14:00.477Z,18.83
2022-08-20T02:15:00.393Z,18.70
2022-08-20T02:16:00.322Z,18.75
2022-08-20T02:17:00.246Z,18.81
2022-08-20T02:18:00.169Z,18.81
2022-08-20T02:19:00.089Z,18.80
2022-08-20T02:20:00.019Z,18.74
2022-08-20T02:20:59.938Z,18.71
2022-08-20T02:21:59.874Z,18.68
2022-08-20T02:22:59.788Z,18.83
2022-08-20T02:23:59.710Z,18.73
2022-08-20T02:24:59.634Z,18.73
2022-08-20T02:25:59.558Z,18.73
2022-08-20T02:26:59.482Z,18.74
2022-08-20T02:27:59.412Z,18.66
2022-08-20T02:28:59.333Z,18.78
2022-08-20T02:29:59.252Z,18.73
2022-08-20T02:30:59.174Z,18.77
2022-08-20T02:32:31.188Z,18.84
2022-08-20T02:32:59.026Z,18.81
2022-08-20T02:34:22.013Z,18.78
2022-08-20T02:34:58.870Z,18.81
2022-08-20T02:35:58.792Z,18.78
2022-08-20T02:36:58.718Z,18.68
2022-08-20T02:37:58.692Z,18.80
2022-08-20T02:38:58.569Z,18.78
2022-08-20T02:39:58.541Z,18.80
2022-08-20T02:40:58.412Z,18.73
2022-08-20T02:41:58.336Z,18.83
2022-08-20T02:42:58.260Z,18.83
2022-08-20T02:43:58.186Z,18.77
2022-08-20T02:44:58.111Z,18.78
2022-08-20T02:45:58.030Z,18.81
2022-08-20T02:46:57.960Z,18.78
2022-08-20T02:47:58.143Z,18.83
2022-08-20T02:48:57.801Z,18.80
2022-08-20T02:49:57.721Z,18.86
2022-08-20T02:50:57.653Z,18.88
2022-08-20T02:51:57.573Z,18.88
2022-08-20T02:52:57.497Z,18.75
2022-08-20T02:53:57.419Z,18.77
2022-08-20T02:54:57.342Z,18.81
2022-08-20T02:55:57.268Z,18.88
2022-08-20T02:56:57.194Z,18.84
2022-08-20T02:57:57.548Z,18.84
2022-08-20T02:58:57.044Z,18.86
2022-08-20T02:59:56.966Z,18.86
2022-08-20T03:00:56.962Z,18.84
2022-08-20T03:01:59.898Z,18.78
2022-08-20T03:02:56.743Z,18.88
2022-08-20T03:03:56.664Z,18.89
2022-08-20T03:04:56.584Z,18.80
2022-08-20T03:05:56.512Z,18.90
2022-08-20T03:06:56.432Z,18.81
2022-08-20T03:07:56.456Z,18.84
2022-08-20T03:08:56.280Z,18.88
2022-08-20T03:09:56.209Z,18.88
2022-08-20T03:10:56.131Z,18.83
2022-08-20T03:11:56.055Z,18.83
2022-08-20T03:12:55.973Z,18.83
2022-08-20T03:13:55.900Z,18.95
2022-08-20T03:14:55.823Z,18.86
2022-08-20T03:15:58.783Z,18.88
2022-08-20T03:16:55.670Z,18.88
2022-08-20T03:17:55.800Z,18.83
2022-08-20T03:18:55.521Z,18.93
2022-08-20T03:19:55.447Z,18.92
2022-08-20T03:20:55.363Z,18.88
2022-08-20T03:21:55.291Z,18.86
2022-08-20T03:22:55.214Z,18.81
2022-08-20T03:23:55.139Z,18.86
2022-08-20T03:24:55.066Z,18.90
2022-08-20T03:25:54.988Z,18.86
2022-08-20T03:26:54.909Z,18.90
2022-08-20T03:27:55.091Z,18.89
2022-08-20T03:28:54.754Z,18.88
2022-08-20T03:29:54.680Z,18.92
2022-08-20T03:30:54.608Z,18.96
2022-08-20T03:31:54.525Z,18.95
2022-08-20T03:32:54.452Z,18.95
2022-08-20T03:33:54.378Z,18.95
2022-08-20T03:34:54.301Z,18.95
2022-08-20T03:35:54.223Z,18.92
2022-08-20T03:36:54.148Z,19.00
2022-08-20T03:37:54.077Z,19.07
2022-08-20T03:38:53.995Z,18.96
2022-08-20T03:39:53.970Z,18.88
2022-08-20T03:40:53.850Z,18.90
2022-08-20T03:41:53.770Z,18.96
2022-08-20T03:42:53.688Z,18.96
2022-08-20T03:43:53.619Z,18.90
2022-08-20T03:44:58.953Z,18.96
2022-08-20T03:45:53.464Z,18.98
2022-08-20T03:46:53.391Z,18.90
2022-08-20T03:47:53.319Z,18.96
2022-08-20T03:49:00.374Z,19.07
2022-08-20T03:49:53.157Z,18.92
2022-08-20T03:50:53.080Z,18.98
2022-08-20T03:51:57.801Z,18.92
2022-08-20T03:53:00.611Z,18.92
2022-08-20T03:54:56.789Z,18.96
2022-08-20T03:56:01.772Z,18.93
2022-08-20T03:58:01.012Z,18.89
2022-08-20T03:59:00.914Z,18.89
2022-08-20T04:01:05.318Z,18.86
2022-08-20T04:02:05.211Z,18.92
2022-08-20T04:03:59.464Z,18.84
2022-08-20T04:04:59.373Z,18.89
2022-08-20T04:07:03.682Z,18.95
2022-08-20T04:08:03.682Z,18.88
2022-08-20T04:10:07.937Z,18.83
2022-08-20T04:11:07.851Z,18.84
2022-08-20T04:13:12.189Z,18.93
2022-08-20T04:14:14.958Z,18.86
2022-08-20T04:16:16.428Z,18.88
2022-08-20T04:17:16.349Z,18.81
2022-08-20T04:19:20.674Z,18.83
2022-08-20T04:20:20.584Z,18.95
2022-08-20T04:22:24.918Z,18.88
2022-08-20T04:23:24.824Z,18.80
2022-08-20T04:25:29.779Z,18.83
2022-08-20T04:26:29.079Z,18.83
2022-08-20T04:28:33.427Z,18.84
2022-08-20T04:29:35.354Z,18.84
2022-08-20T04:31:37.170Z,18.81
2022-08-20T04:32:37.096Z,18.96
2022-08-20T04:33:37.020Z,18.83
2022-08-20T04:34:36.939Z,18.81
2022-08-20T04:35:36.863Z,18.89
2022-08-20T04:36:36.783Z,18.81
2022-08-20T04:37:36.712Z,18.83
2022-08-20T04:38:49.960Z,18.93
2022-08-20T04:39:36.587Z,18.92
2022-08-20T04:40:36.488Z,18.95
2022-08-20T04:41:36.403Z,18.80
2022-08-20T04:42:36.329Z,18.95
2022-08-20T04:43:36.255Z,18.92
2022-08-20T04:44:36.175Z,18.89
2022-08-20T04:45:36.103Z,18.83
2022-08-20T04:46:36.027Z,18.86
2022-08-20T04:47:35.950Z,18.83
2022-08-20T04:48:35.873Z,18.86
2022-08-20T04:49:35.794Z,18.80
2022-08-20T04:50:35.719Z,18.81
2022-08-20T04:51:35.652Z,18.89
2022-08-20T04:52:35.571Z,18.86
2022-08-20T04:53:35.498Z,18.90
2022-08-20T04:54:35.414Z,18.96
2022-08-20T04:55:35.340Z,18.92
2022-08-20T04:56:35.266Z,19.00
2022-08-20T04:57:35.200Z,18.92
2022-08-20T04:58:35.109Z,18.90
2022-08-20T04:59:35.042Z,18.92
2022-08-20T05:00:34.960Z,18.98
2022-08-20T05:01:34.948Z,18.90
2022-08-20T05:02:34.807Z,18.92
2022-08-20T05:03:34.734Z,18.89
2022-08-20T05:04:34.658Z,18.99
2022-08-20T05:05:34.585Z,19.00
2022-08-20T05:06:34.506Z,18.99
2022-08-20T05:07:34.430Z,18.96
2022-08-20T05:08:34.350Z,18.98
2022-08-20T05:09:43.782Z,18.95
2022-08-20T05:10:34.202Z,19.00
2022-08-20T05:11:36.934Z,19.04
2022-08-20T05:12:34.048Z,19.08
2022-08-20T05:13:33.974Z,19.07
2022-08-20T05:14:33.893Z,19.02
2022-08-20T05:15:33.820Z,19.09
2022-08-20T05:16:33.741Z,19.09
2022-08-20T05:17:33.672Z,19.11
2022-08-20T05:18:33.591Z,19.11
2022-08-20T05:19:38.315Z,19.08
2022-08-20T05:20:33.441Z,19.14
2022-08-20T05:21:33.368Z,19.12
2022-08-20T05:22:33.285Z,19.08
2022-08-20T05:23:33.210Z,19.19
2022-08-20T05:24:33.135Z,19.14
2022-08-20T05:25:33.061Z,19.16
2022-08-20T05:26:32.980Z,19.11
2022-08-20T05:27:32.909Z,19.15
2022-08-20T05:28:32.835Z,19.15
2022-08-20T05:29:32.754Z,19.19
2022-08-20T05:30:32.679Z,19.15
2022-08-20T05:31:33.316Z,19.21
2022-08-20T05:32:32.525Z,19.19
2022-08-20T05:33:32.451Z,19.26
2022-08-20T05:34:32.374Z,19.26
2022-08-20T05:35:32.298Z,19.22
2022-08-20T05:36:32.232Z,19.29
2022-08-20T05:37:32.879Z,19.26
2022-08-20T05:38:32.075Z,19.31
2022-08-20T05:39:35.488Z,19.26
2022-08-20T05:40:31.922Z,19.26
2022-08-20T05:41:31.849Z,19.29
2022-08-20T05:42:31.772Z,19.30
2022-08-20T05:43:31.691Z,19.29
2022-08-20T05:44:31.617Z,19.33
2022-08-20T05:45:31.547Z,19.27
2022-08-20T05:46:31.877Z,19.37
2022-08-20T05:47:31.389Z,19.33
2022-08-20T05:48:31.311Z,19.41
2022-08-20T05:49:31.236Z,19.45
2022-08-20T05:50:31.160Z,19.55
2022-08-20T05:51:31.086Z,19.56
2022-08-20T05:52:31.017Z,19.48
2022-08-20T05:53:30.932Z,19.52
2022-08-20T05:54:30.858Z,19.55
2022-08-20T05:55:30.785Z,19.51
2022-08-20T05:56:31.037Z,19.48
2022-08-20T05:57:30.633Z,19.49
2022-08-20T05:58:30.556Z,19.62
2022-08-20T05:59:30.479Z,19.62
2022-08-20T06:00:30.403Z,19.55
2022-08-20T06:01:30.395Z,19.56
2022-08-20T06:02:30.260Z,19.73
2022-08-20T06:03:30.183Z,19.66
2022-08-20T06:04:30.097Z,19.71
2022-08-20T06:05:30.024Z,19.74
2022-08-20T06:06:45.290Z,19.81
2022-08-20T06:07:29.884Z,19.71
2022-08-20T06:08:29.801Z,19.71
2022-08-20T06:09:31.661Z,19.85
2022-08-20T06:10:29.649Z,19.71
2022-08-20T06:11:31.702Z,19.81
2022-08-20T06:12:29.500Z,19.82
2022-08-20T06:13:29.419Z,19.79
2022-08-20T06:14:29.343Z,19.79
2022-08-20T06:15:29.268Z,19.85
2022-08-20T06:16:29.191Z,19.89
2022-08-20T06:17:29.121Z,19.85
2022-08-20T06:18:29.078Z,19.82
2022-08-20T06:19:32.545Z,19.84
2022-08-20T06:20:28.890Z,19.76
2022-08-20T06:21:28.818Z,19.84
2022-08-20T06:22:28.740Z,19.71
2022-08-20T06:23:54.304Z,19.71
2022-08-20T06:24:28.593Z,19.81
2022-08-20T06:25:28.513Z,19.73
2022-08-20T06:26:30.683Z,19.85
2022-08-20T06:27:28.368Z,19.76
2022-08-20T06:28:28.290Z,19.81
2022-08-20T06:29:28.207Z,19.81
2022-08-20T06:30:28.140Z,19.81
2022-08-20T06:31:28.063Z,19.84
2022-08-20T06:32:27.988Z,19.88
2022-08-20T06:33:27.909Z,19.77
2022-08-20T06:34:27.835Z,19.89
2022-08-20T06:35:27.759Z,19.91
2022-08-20T06:36:27.684Z,19.91
2022-08-20T06:37:31.189Z,19.85
2022-08-20T06:38:27.530Z,19.88
2022-08-20T06:39:27.460Z,19.89
2022-08-20T06:40:27.390Z,19.84
2022-08-20T06:41:36.017Z,19.99
2022-08-20T06:42:27.227Z,19.88
2022-08-20T06:43:27.151Z,19.77
2022-08-20T06:44:27.081Z,19.86
2022-08-20T06:45:27.007Z,19.84
2022-08-20T06:46:26.929Z,19.85
2022-08-20T06:47:26.849Z,19.86
2022-08-20T06:48:26.792Z,19.86
2022-08-20T06:49:26.708Z,19.88
2022-08-20T06:50:26.713Z,19.85
2022-08-20T06:51:26.546Z,19.89
2022-08-20T06:52:52.461Z,19.85
2022-08-20T06:53:26.404Z,19.82
2022-08-20T06:54:28.665Z,19.70
2022-08-20T06:55:26.250Z,19.85
2022-08-20T06:56:26.173Z,19.82
2022-08-20T06:57:26.097Z,19.73
2022-08-20T06:58:36.284Z,19.74
2022-08-20T06:59:25.944Z,19.82
2022-08-20T07:00:25.909Z,19.86
2022-08-20T07:01:25.827Z,19.85
2022-08-20T07:02:28.473Z,19.84
2022-08-20T07:03:25.641Z,19.81
2022-08-20T07:04:25.574Z,19.95
2022-08-20T07:05:25.492Z,19.88
2022-08-20T07:06:25.858Z,19.91
2022-08-20T07:07:25.340Z,19.94
2022-08-20T07:08:25.335Z,19.94
2022-08-20T07:09:25.186Z,19.85
2022-08-20T07:10:25.145Z,19.82
2022-08-20T07:11:28.141Z,19.88
2022-08-20T07:12:24.968Z,19.95
2022-08-20T07:13:25.551Z,19.95
2022-08-20T07:14:24.812Z,20.00
2022-08-20T07:15:24.747Z,20.00
2022-08-20T07:16:24.666Z,20.00
2022-08-20T07:17:24.588Z,20.00
2022-08-20T07:18:28.415Z,20.02
2022-08-20T07:19:24.467Z,20.00
2022-08-20T07:20:24.389Z,20.07
2022-08-20T07:21:24.281Z,20.04
2022-08-20T07:22:24.207Z,20.13
2022-08-20T07:23:24.133Z,20.09
2022-08-20T07:24:24.053Z,20.09
2022-08-20T07:25:23.976Z,20.14
2022-08-20T07:26:23.904Z,20.14
2022-08-20T07:27:23.843Z,20.11
2022-08-20T07:28:23.755Z,20.11
2022-08-20T07:29:23.676Z,20.22
2022-08-20T07:30:23.693Z,20.24
2022-08-20T07:31:23.532Z,20.18
2022-08-20T07:32:23.454Z,20.32
2022-08-20T07:33:23.375Z,20.26
2022-08-20T07:34:23.301Z,20.28
2022-08-20T07:35:23.227Z,20.36
2022-08-20T07:36:23.156Z,20.37
2022-08-20T07:37:23.080Z,20.34
2022-08-20T07:38:22.998Z,20.37
2022-08-20T07:39:22.928Z,20.39
2022-08-20T07:40:26.157Z,20.34
2022-08-20T07:41:22.778Z,20.37
2022-08-20T07:42:22.704Z,20.37
2022-08-20T07:43:22.630Z,20.36
2022-08-20T07:44:22.551Z,20.40
2022-08-20T07:45:22.472Z,20.41
2022-08-20T07:46:22.403Z,20.43
2022-08-20T07:47:22.328Z,20.44
2022-08-20T07:48:31.142Z,20.36
2022-08-20T07:49:22.170Z,20.39
2022-08-20T07:50:22.099Z,20.32
2022-08-20T07:51:22.023Z,20.40
2022-08-20T07:52:21.946Z,20.34
2022-08-20T07:53:21.874Z,20.31
2022-08-20T07:54:21.796Z,20.24
2022-08-20T07:55:21.727Z,20.34
2022-08-20T07:56:21.667Z,20.36
2022-08-20T07:57:21.569Z,20.37
2022-08-20T07:58:21.496Z,20.34
2022-08-20T07:59:21.425Z,20.31
2022-08-20T08:00:21.345Z,20.24
2022-08-20T08:01:21.295Z,20.26
2022-08-20T08:02:21.201Z,20.22
2022-08-20T08:03:21.126Z,20.19
2022-08-20T08:04:21.051Z,20.26
2022-08-20T08:05:20.966Z,20.28
2022-08-20T08:06:29.067Z,20.25
2022-08-20T08:07:20.827Z,20.24
2022-08-20T08:08:20.743Z,20.34
2022-08-20T08:09:20.670Z,20.32
2022-08-20T08:10:20.591Z,20.37
2022-08-20T08:11:20.520Z,20.40
2022-08-20T08:12:20.447Z,20.37
2022-08-20T08:13:20.367Z,20.43
2022-08-20T08:14:20.290Z,20.36
2022-08-20T08:15:20.215Z,20.40
2022-08-20T08:16:20.154Z,20.37
2022-08-20T08:17:20.124Z,20.41
2022-08-20T08:18:19.993Z,20.37
2022-08-20T08:19:19.919Z,20.34
2022-08-20T08:20:19.847Z,20.43
2022-08-20T08:21:19.765Z,20.44
2022-08-20T08:22:19.690Z,20.40
2022-08-20T08:23:31.606Z,20.48
2022-08-20T08:24:22.499Z,20.51
2022-08-20T08:25:19.462Z,20.56
2022-08-20T08:26:19.444Z,20.56
2022-08-20T08:27:19.324Z,20.52
2022-08-20T08:28:19.238Z,20.59
2022-08-20T08:29:19.168Z,20.60
2022-08-20T08:30:19.088Z,20.69
2022-08-20T08:31:19.028Z,20.65
2022-08-20T08:32:18.947Z,20.74
2022-08-20T08:33:18.867Z,20.78
2022-08-20T08:34:18.791Z,20.75
2022-08-20T08:35:18.714Z,20.85
2022-08-20T08:36:18.641Z,20.85
2022-08-20T08:37:18.565Z,20.75
2022-08-20T08:38:18.492Z,20.81
2022-08-20T08:39:18.418Z,20.93
2022-08-20T08:40:18.382Z,20.85
2022-08-20T08:41:18.269Z,20.82
2022-08-20T08:42:18.186Z,20.82
2022-08-20T08:43:21.328Z,20.93
2022-08-20T08:44:18.042Z,20.78
2022-08-20T08:45:17.968Z,20.85
2022-08-20T08:46:17.892Z,20.93
2022-08-20T08:47:17.812Z,20.90
2022-08-20T08:48:18.671Z,20.85
2022-08-20T08:49:17.660Z,20.97
2022-08-20T08:50:28.568Z,20.88
2022-08-20T08:51:17.514Z,20.93
2022-08-20T08:52:17.436Z,20.87
2022-08-20T08:53:17.367Z,20.93
2022-08-20T08:54:17.289Z,20.93
2022-08-20T08:55:17.216Z,20.88
2022-08-20T08:56:17.137Z,20.87
2022-08-20T08:57:17.062Z,20.92
2022-08-20T08:58:17.566Z,20.75
2022-08-20T08:59:16.915Z,20.88
2022-08-20T09:00:16.859Z,20.92
2022-08-20T09:01:55.064Z,20.95
2022-08-20T09:02:16.807Z,20.93
2022-08-20T09:03:16.616Z,20.99
2022-08-20T09:04:16.536Z,20.95
2022-08-20T09:05:16.465Z,21.00
2022-08-20T09:06:16.393Z,20.95
2022-08-20T09:07:16.313Z,20.96
2022-08-20T09:08:17.221Z,20.95
2022-08-20T09:09:16.166Z,20.93
2022-08-20T09:10:16.098Z,20.96
2022-08-20T09:11:16.027Z,20.99
2022-08-20T09:12:15.963Z,20.96
2022-08-20T09:13:15.867Z,20.99
2022-08-20T09:14:15.792Z,20.99
2022-08-20T09:15:15.717Z,21.12
2022-08-20T09:16:15.639Z,21.05
2022-08-20T09:17:15.568Z,21.06
2022-08-20T09:18:15.491Z,20.95
2022-08-20T09:19:15.419Z,20.96
2022-08-20T09:20:15.342Z,20.88
2022-08-20T09:21:15.266Z,21.02
2022-08-20T09:22:15.196Z,20.96
2022-08-20T09:23:15.133Z,20.97
2022-08-20T09:24:15.056Z,20.97
2022-08-20T09:25:14.971Z,20.96
2022-08-20T09:26:14.889Z,20.99
2022-08-20T09:27:14.817Z,21.03
2022-08-20T09:28:14.749Z,21.05
2022-08-20T09:29:14.994Z,21.06
2022-08-20T09:30:14.593Z,21.02
2022-08-20T09:31:14.525Z,20.96
2022-08-20T09:32:14.444Z,20.93
2022-08-20T09:33:14.371Z,20.96
2022-08-20T09:34:14.297Z,21.06
2022-08-20T09:35:14.221Z,20.99
2022-08-20T09:36:31.777Z,21.12
2022-08-20T09:37:14.075Z,21.11
2022-08-20T09:38:13.996Z,21.12
2022-08-20T09:39:13.921Z,21.12
2022-08-20T09:40:13.974Z,21.22
2022-08-20T09:41:13.765Z,21.22
2022-08-20T09:42:13.695Z,21.24
2022-08-20T09:43:13.616Z,21.11
2022-08-20T09:44:13.546Z,21.09
2022-08-20T09:45:13.491Z,20.96
2022-08-20T09:46:13.395Z,21.02
2022-08-20T09:47:13.319Z,21.02
2022-08-20T09:48:13.248Z,20.96
2022-08-20T09:49:13.184Z,20.92
2022-08-20T09:50:13.099Z,20.87
2022-08-20T09:51:13.023Z,20.95
2022-08-20T09:52:12.986Z,20.97
2022-08-20T09:53:12.872Z,20.95
2022-08-20T09:54:12.802Z,20.87
2022-08-20T09:55:12.725Z,20.90
2022-08-20T09:56:12.645Z,20.82
2022-08-20T09:57:12.572Z,20.80
2022-08-20T09:58:12.496Z,20.84
2022-08-20T09:59:12.429Z,20.90
2022-08-20T10:00:12.347Z,20.88
2022-08-20T10:01:14.328Z,20.75
2022-08-20T10:02:12.198Z,20.77
2022-08-20T10:03:12.124Z,20.82
2022-08-20T10:04:12.057Z,20.90
2022-08-20T10:05:12.371Z,20.84
2022-08-20T10:06:11.901Z,20.85
2022-08-20T10:07:11.825Z,20.85
2022-08-20T10:08:11.750Z,20.84
2022-08-20T10:09:11.676Z,20.84
2022-08-20T10:10:11.600Z,20.80
2022-08-20T10:11:11.523Z,20.90
2022-08-20T10:12:11.454Z,20.77
2022-08-20T10:13:12.773Z,20.80
2022-08-20T10:14:11.304Z,20.80
2022-08-20T10:15:11.223Z,20.77
2022-08-20T10:16:11.164Z,20.70
2022-08-20T10:17:11.078Z,20.70
2022-08-20T10:18:12.171Z,20.74
2022-08-20T10:19:10.929Z,20.70
2022-08-20T10:20:10.854Z,20.74
2022-08-20T10:21:10.802Z,20.63
2022-08-20T10:22:10.700Z,20.74
2022-08-20T10:23:10.625Z,20.67
2022-08-20T10:24:10.551Z,20.66
2022-08-20T10:25:10.472Z,20.70
2022-08-20T10:26:10.401Z,20.77
2022-08-20T10:27:10.326Z,20.74
2022-08-20T10:28:10.251Z,20.78
2022-08-20T10:29:10.171Z,20.69
2022-08-20T10:30:10.113Z,20.65
2022-08-20T10:31:10.024Z,20.67
2022-08-20T10:32:09.953Z,20.70
2022-08-20T10:33:09.873Z,20.62
2022-08-20T10:34:09.802Z,20.70
2022-08-20T10:35:09.725Z,20.59
2022-08-20T10:36:09.652Z,20.59
2022-08-20T10:37:09.580Z,20.59
2022-08-20T10:38:09.513Z,20.58
2022-08-20T10:39:09.425Z,20.58
2022-08-20T10:40:09.398Z,20.56
2022-08-20T10:41:09.276Z,20.58
2022-08-20T10:42:09.194Z,20.48
2022-08-20T10:43:09.120Z,20.55
2022-08-20T10:44:09.117Z,20.47
2022-08-20T10:45:08.973Z,20.52
2022-08-20T10:46:08.899Z,20.48
2022-08-20T10:47:08.821Z,20.58
2022-08-20T10:48:08.750Z,20.48
2022-08-20T10:49:08.670Z,20.50
2022-08-20T10:50:08.599Z,20.47
2022-08-20T10:51:08.522Z,20.51
2022-08-20T10:52:08.448Z,20.48
2022-08-20T10:53:08.369Z,20.50
2022-08-20T10:54:12.333Z,20.48
2022-08-20T10:55:08.224Z,20.48
2022-08-20T10:56:08.148Z,20.44
2022-08-20T10:57:08.074Z,20.48
2022-08-20T10:58:07.994Z,20.47
2022-08-20T10:59:07.920Z,20.44
2022-08-20T11:00:07.842Z,20.50
2022-08-20T11:01:07.779Z,20.50
2022-08-20T11:02:07.771Z,20.56
2022-08-20T11:03:07.620Z,20.58
2022-08-20T11:04:07.543Z,20.58
2022-08-20T11:05:07.470Z,20.50
2022-08-20T11:06:07.395Z,20.41
2022-08-20T11:07:07.317Z,20.44
2022-08-20T11:08:07.247Z,20.47
2022-08-20T11:09:09.263Z,20.40
2022-08-20T11:10:10.632Z,20.55
2022-08-20T11:11:07.016Z,20.52
2022-08-20T11:12:07.032Z,20.50
2022-08-20T11:13:06.932Z,20.50
2022-08-20T11:14:06.794Z,20.47
2022-08-20T11:15:06.723Z,20.48
2022-08-20T11:16:06.643Z,20.52
2022-08-20T11:17:06.566Z,20.50
2022-08-20T11:18:06.495Z,20.50
2022-08-20T11:19:06.421Z,20.55
2022-08-20T11:20:06.421Z,20.48
2022-08-20T11:21:06.270Z,20.55
2022-08-20T11:22:06.195Z,20.56
2022-08-20T11:23:06.117Z,20.58
2022-08-20T11:24:06.046Z,20.58
2022-08-20T11:25:05.968Z,20.52
2022-08-20T11:26:05.902Z,20.48
2022-08-20T11:27:05.824Z,20.58
2022-08-20T11:28:05.743Z,20.52
2022-08-20T11:29:05.677Z,20.58
2022-08-20T11:30:05.591Z,20.50
2022-08-20T11:31:05.528Z,20.56
2022-08-20T11:32:05.440Z,20.63
2022-08-20T11:33:05.368Z,20.62
2022-08-20T11:34:08.351Z,20.59
2022-08-20T11:35:19.193Z,20.55
2022-08-20T11:36:05.150Z,20.58
2022-08-20T11:37:05.066Z,20.58
2022-08-20T11:38:04.992Z,20.60
2022-08-20T11:39:04.916Z,20.58
2022-08-20T11:40:04.883Z,20.62
2022-08-20T11:41:04.768Z,20.62
2022-08-20T11:42:04.693Z,20.67
2022-08-20T11:43:20.044Z,20.67
2022-08-20T11:44:19.902Z,20.67
2022-08-20T11:45:04.462Z,20.65
2022-08-20T11:46:04.388Z,20.65
2022-08-20T11:47:04.315Z,20.70
2022-08-20T11:48:04.247Z,20.66
2022-08-20T11:49:04.161Z,20.72
2022-08-20T11:50:04.088Z,20.70
2022-08-20T11:51:04.015Z,20.80
2022-08-20T11:52:03.940Z,20.66
2022-08-20T11:53:03.869Z,20.75
2022-08-20T11:54:03.791Z,20.72
2022-08-20T11:55:03.714Z,20.78
2022-08-20T11:56:03.780Z,20.74
2022-08-20T11:57:03.563Z,20.72
2022-08-20T11:58:03.509Z,20.66
2022-08-20T11:59:03.414Z,20.72
2022-08-20T12:00:03.343Z,20.65
2022-08-20T12:01:03.266Z,20.65
2022-08-20T12:02:03.705Z,20.65
2022-08-20T12:03:03.253Z,20.65
2022-08-20T12:04:03.042Z,20.60
2022-08-20T12:05:02.964Z,20.51
2022-08-20T12:06:02.887Z,20.48
2022-08-20T12:07:02.815Z,20.48
2022-08-20T12:08:02.737Z,20.60
2022-08-20T12:09:02.661Z,20.59
2022-08-20T12:10:02.591Z,20.58
2022-08-20T12:11:02.519Z,20.52
2022-08-20T12:12:02.439Z,20.51
2022-08-20T12:13:04.564Z,20.50
2022-08-20T12:14:02.301Z,20.41
2022-08-20T12:15:02.213Z,20.43
2022-08-20T12:16:02.153Z,20.41
2022-08-20T12:17:02.059Z,20.43
2022-08-20T12:18:02.001Z,20.50
2022-08-20T12:19:01.922Z,20.51
2022-08-20T12:20:01.844Z,20.55
2022-08-20T12:21:01.760Z,20.52
2022-08-20T12:22:01.690Z,20.52
2022-08-20T12:23:01.610Z,20.58
2022-08-20T12:24:01.538Z,20.52
2022-08-20T12:25:01.458Z,20.50
2022-08-20T12:26:01.404Z,20.48
2022-08-20T12:27:01.309Z,20.48
2022-08-20T12:28:01.243Z,20.44
2022-08-20T12:29:01.214Z,20.50
2022-08-20T12:30:01.086Z,20.50
2022-08-20T12:31:01.024Z,20.56
2022-08-20T12:32:00.933Z,20.72
2022-08-20T12:33:00.856Z,20.69
2022-08-20T12:34:00.784Z,20.75
2022-08-20T12:35:01.058Z,20.75
2022-08-20T12:36:01.354Z,20.74
2022-08-20T12:37:00.555Z,20.67
2022-08-20T12:38:00.483Z,20.66
2022-08-20T12:39:00.412Z,20.74
2022-08-20T12:40:00.500Z,20.66
2022-08-20T12:41:00.255Z,20.70
2022-08-20T12:42:00.181Z,20.65
2022-08-20T12:43:00.105Z,20.72
2022-08-20T12:44:00.030Z,20.67
2022-08-20T12:44:59.967Z,20.72
2022-08-20T12:45:59.880Z,20.74
2022-08-20T12:46:59.808Z,20.77
2022-08-20T12:47:59.738Z,20.85
2022-08-20T12:48:59.656Z,20.75
2022-08-20T12:49:59.581Z,20.70
2022-08-20T12:50:59.517Z,20.77
2022-08-20T12:51:59.437Z,20.72
2022-08-20T12:52:59.374Z,20.77
2022-08-20T12:53:59.283Z,20.81
2022-08-20T12:54:59.203Z,20.81
2022-08-20T12:55:59.134Z,20.90
2022-08-20T12:56:59.055Z,20.78
2022-08-20T12:57:58.975Z,20.87
2022-08-20T12:58:58.912Z,20.78
2022-08-20T12:59:59.082Z,20.85
2022-08-20T13:00:58.806Z,20.85
2022-08-20T13:01:58.682Z,20.88
2022-08-20T13:02:58.679Z,20.95
2022-08-20T13:03:58.534Z,20.95
2022-08-20T13:05:03.943Z,20.95